createdAt,value
2023-05-17T00:00:26.480Z,2.60
2023-05-17T00:02:53.190Z,2.20
2023-05-17T00:05:19.909Z,2.25
2023-05-17T00:07:47.433Z,2.25
2023-05-17T00:10:14.138Z,2.17
2023-05-17T00:12:40.839Z,2.35
2023-05-17T00:15:07.807Z,2.00
2023-05-17T00:17:34.706Z,1.95
2023-05-17T00:20:01.651Z,2.75
2023-05-17T00:22:28.353Z,2.78
2023-05-17T00:24:55.266Z,2.08
2023-05-17T00:27:24.533Z,3.10
2023-05-17T00:29:51.598Z,3.20
2023-05-17T00:32:18.291Z,4.32
2023-05-17T00:34:45.017Z,3.17
2023-05-17T00:37:11.778Z,3.10
2023-05-17T00:39:38.495Z,3.03
2023-05-17T00:42:05.401Z,2.95
2023-05-17T00:44:32.119Z,2.90
2023-05-17T00:47:03.100Z,2.63
2023-05-17T00:49:29.869Z,2.22
2023-05-17T00:51:56.706Z,2.33
2023-05-17T00:54:23.369Z,2.88
2023-05-17T00:56:50.054Z,2.33
2023-05-17T00:59:16.738Z,2.30
2023-05-17T01:01:43.548Z,2.28
2023-05-17T01:04:10.733Z,2.63
2023-05-17T01:06:37.509Z,2.10
2023-05-17T01:09:05.221Z,2.75
2023-05-17T01:12:01.192Z,2.72
2023-05-17T01:14:46.173Z,4.07
2023-05-17T01:17:17.065Z,2.80
2023-05-17T01:19:59.022Z,3.10
2023-05-17T01:22:25.795Z,3.30
2023-05-17T01:25:12.134Z,3.40
2023-05-17T01:27:41.124Z,3.63
2023-05-17T01:30:08.633Z,3.72
2023-05-17T01:32:35.487Z,3.28
2023-05-17T01:35:05.238Z,3.97
2023-05-17T01:37:31.919Z,2.97
2023-05-17T01:39:58.576Z,3.92
2023-05-17T01:42:32.519Z,3.63
2023-05-17T01:45:10.373Z,3.47
2023-05-17T01:47:42.213Z,4.10
2023-05-17T01:50:08.962Z,3.35
2023-05-17T01:52:37.883Z,2.72
2023-05-17T01:55:35.452Z,3.42
2023-05-17T01:58:02.197Z,3.38
2023-05-17T02:00:28.902Z,3.33
2023-05-17T02:02:55.658Z,3.58
2023-05-17T02:05:22.387Z,3.03
2023-05-17T02:07:49.061Z,3.25
2023-05-17T02:10:15.863Z,2.88
2023-05-17T02:12:42.889Z,2.75
2023-05-17T02:15:12.089Z,2.92
2023-05-17T02:17:40.454Z,3.78
2023-05-17T02:22:34.395Z,2.97
2023-05-17T02:25:01.277Z,3.38
2023-05-17T02:27:28.024Z,5.00
2023-05-17T02:29:54.790Z,5.13
2023-05-17T02:32:21.472Z,6.00
2023-05-17T02:34:48.306Z,4.40
2023-05-17T02:37:15.024Z,3.95
2023-05-17T02:39:41.732Z,3.78
2023-05-17T02:42:08.430Z,3.03
2023-05-17T02:44:35.116Z,3.08
2023-05-17T02:47:01.836Z,3.33
2023-05-17T02:49:28.563Z,3.17
2023-05-17T02:51:55.299Z,7.00
2023-05-17T02:54:22.195Z,6.13
2023-05-17T02:56:49.179Z,4.03
2023-05-17T02:59:15.924Z,3.40
2023-05-17T03:01:42.662Z,3.45
2023-05-17T03:04:09.445Z,3.40
2023-05-17T03:06:36.224Z,3.25
2023-05-17T03:09:02.989Z,3.22
2023-05-17T03:11:29.667Z,3.85
2023-05-17T03:13:56.385Z,4.10
2023-05-17T03:16:23.105Z,5.50
2023-05-17T03:18:49.962Z,5.13
2023-05-17T03:21:16.783Z,3.72
2023-05-17T03:23:43.447Z,3.80
2023-05-17T03:26:10.097Z,3.47
2023-05-17T03:28:36.853Z,6.05
2023-05-17T03:31:03.602Z,6.22
2023-05-17T03:33:30.444Z,6.32
2023-05-17T03:35:57.225Z,5.70
2023-05-17T03:38:23.893Z,6.88
2023-05-17T03:40:52.029Z,5.65
2023-05-17T03:43:18.778Z,4.60
2023-05-17T03:45:45.649Z,4.60
2023-05-17T03:48:12.393Z,4.57
2023-05-17T03:50:41.071Z,5.05
2023-05-17T03:53:07.933Z,6.20
2023-05-17T03:55:34.696Z,9.40
2023-05-17T03:58:01.424Z,8.32
2023-05-17T04:00:28.109Z,6.97
2023-05-17T04:02:54.818Z,5.88
2023-05-17T04:05:21.746Z,6.22
2023-05-17T04:07:48.583Z,5.93
2023-05-17T04:10:15.366Z,6.03
2023-05-17T04:12:42.009Z,7.60
2023-05-17T04:15:09.137Z,9.48
2023-05-17T04:17:36.371Z,8.82
2023-05-17T04:20:06.446Z,8.80
2023-05-17T04:22:33.670Z,10.35
2023-05-17T04:25:00.512Z,10.13
2023-05-17T04:27:27.312Z,9.60
2023-05-17T04:29:54.008Z,9.48
2023-05-17T04:32:21.483Z,8.88
2023-05-17T04:34:48.204Z,8.43
2023-05-17T04:37:15.994Z,8.73
2023-05-17T04:39:42.809Z,8.75
2023-05-17T04:42:09.926Z,9.02
2023-05-17T04:44:36.616Z,9.30
2023-05-17T04:47:04.001Z,9.73
2023-05-17T04:49:30.749Z,10.95
2023-05-17T04:51:57.397Z,11.88
2023-05-17T04:54:25.008Z,10.73
2023-05-17T04:56:51.729Z,11.32
2023-05-17T04:59:18.421Z,9.50
2023-05-17T05:01:45.162Z,9.43
2023-05-17T05:04:11.985Z,10.02
2023-05-17T05:06:38.909Z,10.60
2023-05-17T05:09:05.730Z,12.60
2023-05-17T05:11:32.466Z,12.82
2023-05-17T05:13:59.165Z,11.88
2023-05-17T05:16:26.265Z,11.50
2023-05-17T05:18:53.141Z,12.30
2023-05-17T05:21:20.012Z,11.65
2023-05-17T05:23:46.724Z,10.80
2023-05-17T05:26:13.390Z,11.43
2023-05-17T05:28:40.209Z,11.57
2023-05-17T05:31:06.897Z,11.55
2023-05-17T05:33:33.880Z,13.23
2023-05-17T05:36:00.759Z,11.93
2023-05-17T05:38:27.490Z,13.35
2023-05-17T05:40:54.205Z,11.32
2023-05-17T05:43:20.948Z,11.73
2023-05-17T05:45:47.729Z,14.27
2023-05-17T05:48:14.660Z,20.95
2023-05-17T05:50:42.944Z,20.05
2023-05-17T05:53:18.905Z,16.08
2023-05-17T05:55:46.575Z,17.05
2023-05-17T05:58:13.289Z,14.88
2023-05-17T06:00:40.057Z,20.23
2023-05-17T06:03:06.804Z,15.77
2023-05-17T06:05:33.741Z,14.73
2023-05-17T06:08:00.524Z,15.35
2023-05-17T06:10:27.496Z,15.23
2023-05-17T06:12:54.435Z,11.57
2023-05-17T06:15:21.206Z,11.18
2023-05-17T06:17:47.947Z,9.15
2023-05-17T06:20:16.451Z,10.40
2023-05-17T06:22:43.856Z,8.80
2023-05-17T06:25:11.480Z,10.55
2023-05-17T06:27:38.210Z,10.93
2023-05-17T06:30:07.316Z,11.65
2023-05-17T06:32:34.369Z,11.02
2023-05-17T06:35:01.682Z,11.77
2023-05-17T06:37:28.468Z,11.23
2023-05-17T06:40:10.085Z,10.90
2023-05-17T06:42:42.109Z,9.82
2023-05-17T06:45:09.309Z,10.00
2023-05-17T06:47:36.108Z,8.82
2023-05-17T06:50:03.191Z,8.02
2023-05-17T06:52:29.977Z,8.05
2023-05-17T06:54:56.635Z,9.65
2023-05-17T06:57:24.400Z,10.05
2023-05-17T06:59:52.333Z,8.93
2023-05-17T07:02:19.573Z,8.90
2023-05-17T07:04:46.296Z,9.10
2023-05-17T07:07:13.007Z,6.28
2023-05-17T07:09:40.081Z,6.93
2023-05-17T07:12:07.084Z,7.10
2023-05-17T07:14:33.820Z,7.03
2023-05-17T07:17:00.689Z,6.57
2023-05-17T07:19:27.571Z,5.53
2023-05-17T07:21:54.377Z,7.00
2023-05-17T07:24:21.097Z,6.55
2023-05-17T07:26:48.482Z,6.13
2023-05-17T07:29:16.107Z,6.35
2023-05-17T07:31:42.897Z,5.50
2023-05-17T07:34:09.636Z,7.75
2023-05-17T07:36:36.415Z,11.55
2023-05-17T07:39:05.299Z,5.07
2023-05-17T07:41:34.286Z,5.40
2023-05-17T07:44:01.355Z,5.78
2023-05-17T07:46:28.027Z,4.85
2023-05-17T07:48:58.292Z,6.22
2023-05-17T07:51:25.670Z,4.75
2023-05-17T07:53:52.489Z,6.30
2023-05-17T07:56:19.240Z,5.13
2023-05-17T07:58:45.930Z,6.07
2023-05-17T08:01:12.605Z,6.68
2023-05-17T08:03:39.818Z,5.95
2023-05-17T08:06:06.732Z,5.80
2023-05-17T08:08:33.524Z,6.50
2023-05-17T08:11:00.253Z,7.18
2023-05-17T08:13:26.959Z,6.80
2023-05-17T08:16:01.678Z,6.88
2023-05-17T08:18:37.484Z,8.40
2023-05-17T08:21:04.838Z,7.82
2023-05-17T08:23:31.593Z,6.55
2023-05-17T08:25:59.277Z,6.47
2023-05-17T08:28:26.002Z,6.70
2023-05-17T08:30:52.659Z,6.85
2023-05-17T08:33:20.900Z,6.32
2023-05-17T08:35:47.871Z,6.78
2023-05-17T08:38:14.554Z,6.20
2023-05-17T08:40:41.427Z,5.93
2023-05-17T08:43:09.064Z,6.38
2023-05-17T08:45:36.884Z,6.82
2023-05-17T08:48:03.697Z,5.10
2023-05-17T08:50:30.703Z,6.38
2023-05-17T08:52:58.575Z,6.30
2023-05-17T08:55:26.450Z,6.53
2023-05-17T08:57:53.196Z,5.90
2023-05-17T09:00:20.515Z,6.50
2023-05-17T09:02:47.400Z,5.85
2023-05-17T09:05:15.143Z,6.90
2023-05-17T09:07:42.999Z,6.25
2023-05-17T09:10:10.139Z,6.10
2023-05-17T09:12:36.842Z,5.95
2023-05-17T09:15:17.392Z,7.10
2023-05-17T09:22:38.525Z,6.88
2023-05-17T09:25:05.846Z,7.00
2023-05-17T09:27:32.704Z,6.78
2023-05-17T09:29:59.413Z,6.15
2023-05-17T09:32:27.272Z,8.45
2023-05-17T09:34:56.299Z,7.78
2023-05-17T09:37:23.244Z,7.43
2023-05-17T09:39:49.999Z,7.63
2023-05-17T09:42:17.798Z,4.20
2023-05-17T09:44:57.712Z,5.22
2023-05-17T09:47:28.739Z,5.40
2023-05-17T09:50:00.859Z,4.53
2023-05-17T09:52:35.228Z,3.60
2023-05-17T09:57:29.503Z,3.50
2023-05-17T09:59:57.536Z,4.10
2023-05-17T10:02:32.876Z,3.35
2023-05-17T10:04:59.665Z,4.55
2023-05-17T10:07:26.940Z,4.22
2023-05-17T10:09:54.755Z,5.22
2023-05-17T10:12:27.612Z,5.00
2023-05-17T10:14:56.301Z,5.80
2023-05-17T10:17:26.734Z,10.00
2023-05-17T10:19:53.841Z,11.70
2023-05-17T10:22:23.722Z,9.32
2023-05-17T10:24:54.165Z,8.45
2023-05-17T10:27:21.694Z,9.48
2023-05-17T10:29:50.487Z,9.02
2023-05-17T10:32:17.484Z,11.13
2023-05-17T10:34:45.785Z,7.50
2023-05-17T10:37:14.130Z,7.68
2023-05-17T10:39:43.862Z,7.38
2023-05-17T10:42:14.731Z,7.30
2023-05-17T10:44:42.041Z,6.70
2023-05-17T10:47:09.035Z,8.02
2023-05-17T10:49:37.457Z,7.10
2023-05-17T10:52:13.898Z,6.03
2023-05-17T10:54:44.327Z,6.13
2023-05-17T10:57:22.725Z,7.50
2023-05-17T10:59:57.774Z,6.78
2023-05-17T11:02:24.574Z,4.10
2023-05-17T11:04:56.246Z,3.40
2023-05-17T11:07:27.997Z,4.28
2023-05-17T11:09:56.500Z,14.32
2023-05-17T11:12:42.559Z,14.02
2023-05-17T11:15:10.665Z,5.00
2023-05-17T11:17:43.419Z,3.85
2023-05-17T11:20:29.669Z,5.18
2023-05-17T11:23:07.123Z,4.97
2023-05-17T11:25:40.640Z,3.85
2023-05-17T11:28:19.471Z,5.85
2023-05-17T11:30:51.775Z,7.15
2023-05-17T11:33:32.471Z,5.85
2023-05-17T11:36:05.516Z,5.13
2023-05-17T11:38:33.147Z,8.45
2023-05-17T11:41:01.475Z,3.75
2023-05-17T11:43:31.107Z,3.10
2023-05-17T11:45:58.730Z,3.25
2023-05-17T11:48:26.677Z,3.70
2023-05-17T11:50:55.168Z,3.47
2023-05-17T11:53:22.157Z,6.70
2023-05-17T11:55:52.546Z,1.88
2023-05-17T11:58:26.179Z,1.83
2023-05-17T12:00:55.382Z,3.13
2023-05-17T12:03:22.980Z,3.53
2023-05-17T12:05:50.804Z,3.60
2023-05-17T12:08:18.567Z,4.25
2023-05-17T12:10:46.999Z,4.20
2023-05-17T12:13:13.796Z,4.32
2023-05-17T12:15:40.700Z,4.57
2023-05-17T12:18:07.615Z,3.95
2023-05-17T12:23:04.857Z,8.35
2023-05-17T12:25:31.548Z,7.03
2023-05-17T12:28:18.791Z,8.35
2023-05-17T12:38:21.701Z,6.25
2023-05-17T12:40:48.624Z,5.97
2023-05-17T12:43:15.726Z,5.35
2023-05-17T12:45:42.625Z,3.28
2023-05-17T12:48:09.734Z,3.85
2023-05-17T12:50:36.622Z,3.67
2023-05-17T12:53:09.053Z,6.55
2023-05-17T12:55:39.080Z,6.10
2023-05-17T12:58:06.167Z,4.63
2023-05-17T13:00:33.241Z,3.22
2023-05-17T13:03:00.425Z,5.38
2023-05-17T13:05:27.358Z,6.55
2023-05-17T13:07:54.145Z,9.85
2023-05-17T13:10:26.406Z,6.70
2023-05-17T13:12:57.311Z,5.38
2023-05-17T13:15:30.616Z,6.40
2023-05-17T13:17:57.656Z,6.45
2023-05-17T13:20:24.755Z,5.82
2023-05-17T13:22:52.165Z,4.50
2023-05-17T13:25:19.459Z,2.78
2023-05-17T13:27:46.975Z,2.92
2023-05-17T13:30:14.075Z,1.50
2023-05-17T13:32:41.605Z,4.85
2023-05-17T13:35:08.735Z,6.80
2023-05-17T13:37:36.407Z,6.10
2023-05-17T13:40:04.076Z,5.85
2023-05-17T13:42:32.148Z,9.52
2023-05-17T13:44:59.183Z,10.13
2023-05-17T13:47:26.382Z,8.43
2023-05-17T13:49:53.287Z,8.75
2023-05-17T13:52:20.266Z,7.70
2023-05-17T13:54:47.285Z,8.68
2023-05-17T13:57:14.164Z,9.18
2023-05-17T13:59:41.634Z,7.60
2023-05-17T14:02:09.457Z,6.50
2023-05-17T14:04:36.586Z,6.47
2023-05-17T14:07:03.893Z,6.60
2023-05-17T14:09:34.551Z,5.43
2023-05-17T14:12:01.833Z,5.43
2023-05-17T14:14:29.193Z,5.70
2023-05-17T14:16:56.288Z,7.03
2023-05-17T14:19:23.199Z,8.60
2023-05-17T14:21:50.470Z,10.93
2023-05-17T14:24:17.329Z,17.63
2023-05-17T14:26:44.373Z,14.15
2023-05-17T14:29:11.414Z,12.45
2023-05-17T14:31:38.210Z,12.13
2023-05-17T14:34:05.249Z,8.57
2023-05-17T14:36:34.068Z,7.80
2023-05-17T14:39:01.192Z,14.48
2023-05-17T14:41:27.990Z,11.65
2023-05-17T14:43:54.737Z,11.60
2023-05-17T14:46:21.533Z,11.35
2023-05-17T14:48:48.528Z,11.38
2023-05-17T14:51:15.786Z,10.60
2023-05-17T14:53:43.213Z,10.95
2023-05-17T14:56:10.140Z,7.47
2023-05-17T14:58:36.975Z,7.47
2023-05-17T15:01:05.463Z,8.05
2023-05-17T15:03:34.300Z,5.88
2023-05-17T15:06:02.889Z,8.40
2023-05-17T15:08:32.272Z,6.50
2023-05-17T15:10:59.122Z,5.90
2023-05-17T15:13:26.567Z,6.47
2023-05-17T15:15:53.527Z,6.97
2023-05-17T15:18:20.797Z,7.43
2023-05-17T15:20:47.622Z,7.53
2023-05-17T15:23:14.520Z,7.30
2023-05-17T15:25:41.660Z,24.33
2023-05-17T15:28:08.501Z,10.52
2023-05-17T15:30:35.352Z,12.38
2023-05-17T15:33:02.820Z,10.85
2023-05-17T15:35:30.116Z,10.05
2023-05-17T15:37:58.829Z,7.05
2023-05-17T15:42:52.682Z,7.10
2023-05-17T15:45:21.552Z,6.68
2023-05-17T15:47:49.597Z,7.85
2023-05-17T15:50:17.033Z,8.27
2023-05-17T15:52:43.988Z,9.15
2023-05-17T15:55:11.214Z,10.15
2023-05-17T15:57:38.017Z,10.23
2023-05-17T16:00:05.461Z,9.88
2023-05-17T16:02:32.262Z,11.98
2023-05-17T16:05:01.262Z,11.30
2023-05-17T16:07:30.348Z,13.85
2023-05-17T16:09:57.208Z,12.77
2023-05-17T16:12:24.081Z,11.40
2023-05-17T16:14:50.977Z,12.82
2023-05-17T16:17:17.818Z,10.32
2023-05-17T16:19:44.695Z,11.18
2023-05-17T16:22:11.815Z,10.25
2023-05-17T16:24:39.008Z,9.57
2023-05-17T16:27:07.991Z,11.80
2023-05-17T16:29:39.988Z,5.50
2023-05-17T16:32:08.195Z,7.45
2023-05-17T16:34:35.655Z,7.68
2023-05-17T16:37:04.195Z,12.73
2023-05-17T16:39:31.281Z,22.88
2023-05-17T16:41:58.207Z,25.90
2023-05-17T16:44:25.026Z,31.38
2023-05-17T16:46:52.054Z,22.92
2023-05-17T16:49:19.124Z,26.67
2023-05-17T16:51:46.115Z,24.67
2023-05-17T16:54:12.967Z,22.30
2023-05-17T16:56:39.807Z,21.27
2023-05-17T16:59:06.604Z,19.60
2023-05-17T17:01:33.517Z,23.90
2023-05-17T17:04:00.955Z,23.33
2023-05-17T17:06:27.849Z,22.35
2023-05-17T17:08:54.646Z,20.75
2023-05-17T17:11:22.185Z,23.58
2023-05-17T17:13:49.555Z,29.73
2023-05-17T17:16:16.484Z,31.92
2023-05-17T17:18:43.676Z,30.35
2023-05-17T17:21:10.599Z,27.83
2023-05-17T17:23:37.753Z,27.75
2023-05-17T17:26:04.832Z,28.85
2023-05-17T17:28:31.723Z,22.92
2023-05-17T17:30:58.629Z,20.67
2023-05-17T17:33:25.562Z,23.95
2023-05-17T17:35:52.532Z,23.48
2023-05-17T17:38:20.126Z,19.88
2023-05-17T17:40:47.174Z,18.70
2023-05-17T17:43:14.333Z,20.33
2023-05-17T17:45:41.720Z,17.15
2023-05-17T17:48:08.675Z,14.60
2023-05-17T17:50:36.153Z,6.88
2023-05-17T17:53:03.035Z,5.55
2023-05-17T17:55:29.850Z,7.70
2023-05-17T17:57:56.906Z,6.75
2023-05-17T18:00:24.443Z,8.23
2023-05-17T18:02:51.707Z,9.18
2023-05-17T18:05:18.990Z,9.57
2023-05-17T18:07:45.943Z,9.75
2023-05-17T18:10:12.849Z,9.15
2023-05-17T18:12:40.033Z,8.65
2023-05-17T18:15:07.753Z,9.20
2023-05-17T18:17:34.708Z,10.02
2023-05-17T18:20:01.607Z,9.98
2023-05-17T18:22:30.914Z,12.63
2023-05-17T18:24:57.768Z,11.80
2023-05-17T18:27:24.941Z,8.63
2023-05-17T18:29:51.927Z,11.13
2023-05-17T18:32:18.798Z,9.70
2023-05-17T18:34:45.976Z,14.60
2023-05-17T18:37:12.818Z,14.70
2023-05-17T18:39:39.716Z,7.35
2023-05-17T18:42:06.875Z,6.55
2023-05-17T18:44:35.410Z,8.50
2023-05-17T18:47:02.236Z,8.55
2023-05-17T18:49:29.473Z,14.73
2023-05-17T18:51:56.835Z,6.47
2023-05-17T18:54:23.746Z,3.38
2023-05-17T18:56:51.108Z,5.10
2023-05-17T18:59:17.938Z,5.38
2023-05-17T19:01:44.842Z,12.23
2023-05-17T19:04:11.823Z,8.25
2023-05-17T19:06:41.474Z,4.80
2023-05-17T19:09:08.688Z,6.95
2023-05-17T19:11:35.657Z,7.03
2023-05-17T19:14:02.712Z,5.35
2023-05-17T19:16:29.784Z,10.45
2023-05-17T19:18:56.628Z,10.10
2023-05-17T19:21:23.591Z,9.63
2023-05-17T19:23:50.635Z,9.80
2023-05-17T19:26:17.472Z,10.25
2023-05-17T19:28:44.257Z,9.20
2023-05-17T19:31:12.219Z,7.93
2023-05-17T19:33:39.138Z,8.90
2023-05-17T19:36:06.169Z,8.88
2023-05-17T19:38:33.723Z,9.93
2023-05-17T19:41:01.506Z,10.82
2023-05-17T19:43:28.444Z,9.10
2023-05-17T19:45:55.292Z,7.78
2023-05-17T19:48:24.185Z,8.52
2023-05-17T19:50:51.586Z,9.07
2023-05-17T19:53:18.498Z,10.35
2023-05-17T19:55:45.517Z,9.43
2023-05-17T19:58:12.263Z,9.93
2023-05-17T20:00:39.122Z,6.10
2023-05-17T20:03:06.065Z,5.60
2023-05-17T20:05:33.011Z,5.22
2023-05-17T20:08:02.784Z,5.32
2023-05-17T20:10:32.917Z,6.15
2023-05-17T20:13:00.395Z,7.43
2023-05-17T20:15:27.195Z,7.68
2023-05-17T20:17:54.030Z,6.53
2023-05-17T20:20:20.923Z,5.05
2023-05-17T20:22:48.201Z,5.80
2023-05-17T20:25:15.117Z,7.40
2023-05-17T20:27:41.898Z,5.72
2023-05-17T20:30:09.372Z,4.70
2023-05-17T20:32:36.291Z,5.22
2023-05-17T20:35:03.105Z,5.63
2023-05-17T20:37:29.909Z,5.07
2023-05-17T20:40:00.292Z,3.72
2023-05-17T20:42:28.394Z,4.05
2023-05-17T20:44:55.649Z,3.53
2023-05-17T20:47:22.671Z,4.57
2023-05-17T20:49:50.441Z,5.40
2023-05-17T20:52:31.387Z,6.05
2023-05-17T20:55:06.198Z,3.90
2023-05-17T20:57:33.054Z,2.60
2023-05-17T20:59:59.908Z,2.97
2023-05-17T21:02:27.486Z,3.08
2023-05-17T21:04:54.973Z,3.05
2023-05-17T21:07:22.689Z,2.90
2023-05-17T21:09:49.567Z,3.20
2023-05-17T21:12:16.431Z,3.28
2023-05-17T21:14:43.241Z,2.22
2023-05-17T21:17:10.511Z,3.38
2023-05-17T21:19:37.467Z,4.65
2023-05-17T21:22:05.124Z,4.72
2023-05-17T21:24:32.083Z,4.15
2023-05-17T21:26:59.248Z,3.47
2023-05-17T21:29:26.056Z,4.28
2023-05-17T21:31:53.271Z,4.15
2023-05-17T21:34:20.159Z,4.70
2023-05-17T21:36:47.052Z,5.35
2023-05-17T21:39:13.905Z,3.03
2023-05-17T21:41:41.460Z,3.95
2023-05-17T21:44:08.356Z,4.18
2023-05-17T21:46:35.218Z,6.88
2023-05-17T21:49:02.345Z,7.60
2023-05-17T21:51:29.235Z,7.38
2023-05-17T21:53:56.300Z,3.83
2023-05-17T21:56:23.239Z,3.75
2023-05-17T21:58:50.150Z,2.35
2023-05-17T22:01:20.205Z,2.45
2023-05-17T22:03:47.724Z,2.22
2023-05-17T22:06:14.622Z,2.08
2023-05-17T22:08:42.776Z,1.90
2023-05-17T22:11:11.060Z,3.45
2023-05-17T22:13:38.278Z,3.63
2023-05-17T22:16:06.350Z,2.28
2023-05-17T22:18:33.436Z,2.80
2023-05-17T22:21:00.222Z,3.53
2023-05-17T22:23:27.517Z,1.48
2023-05-17T22:25:57.389Z,1.42
2023-05-17T22:28:24.445Z,2.40
2023-05-17T22:30:51.529Z,2.20
2023-05-17T22:33:18.700Z,2.33
2023-05-17T22:35:46.772Z,1.60
2023-05-17T22:38:16.064Z,2.38
2023-05-17T22:40:43.716Z,2.17
2023-05-17T22:43:10.878Z,1.35
2023-05-17T22:45:38.544Z,1.65
2023-05-17T22:48:06.118Z,1.80
2023-05-17T22:50:33.403Z,1.95
2023-05-17T22:53:01.380Z,2.20
2023-05-17T22:55:28.665Z,2.28
2023-05-17T22:57:56.130Z,1.50
2023-05-17T23:00:23.682Z,0.98
2023-05-17T23:02:50.825Z,1.10
2023-05-17T23:05:18.454Z,1.70
2023-05-17T23:07:47.598Z,2.10
2023-05-17T23:10:15.773Z,2.15
2023-05-17T23:12:42.878Z,2.70
2023-05-17T23:15:10.684Z,2.60
2023-05-17T23:17:39.187Z,1.90
2023-05-17T23:22:37.681Z,2.28
2023-05-17T23:25:06.140Z,1.73
2023-05-17T23:27:33.609Z,1.73
2023-05-17T23:30:01.238Z,1.60
2023-05-17T23:32:28.408Z,1.83
2023-05-17T23:34:58.650Z,2.20
2023-05-17T23:37:25.696Z,1.60
2023-05-17T23:39:52.751Z,1.27
2023-05-17T23:42:20.492Z,1.45
2023-05-17T23:44:48.944Z,1.20
2023-05-17T23:47:16.079Z,1.02
2023-05-17T23:49:43.177Z,1.40
2023-05-17T23:52:11.361Z,1.30
2023-05-17T23:54:41.645Z,1.00
2023-05-17T23:57:08.965Z,1.10
2023-05-17T23:59:36.762Z,1.38
